createdAt,value
2023-01-27T00:00:19.071Z,102682.09
2023-01-27T00:02:50.141Z,102659.97
2023-01-27T00:05:18.959Z,102687.47
2023-01-27T00:07:48.062Z,102693.84
2023-01-27T00:10:20.970Z,102684.53
2023-01-27T00:13:09.412Z,102686.50
2023-01-27T00:15:38.034Z,102686.97
2023-01-27T00:18:08.763Z,102662.19
2023-01-27T00:20:55.221Z,102658.03
2023-01-27T00:23:44.062Z,102662.25
2023-01-27T00:26:15.674Z,102668.88
2023-01-27T00:28:48.581Z,102644.63
2023-01-27T00:31:36.796Z,102669.75
2023-01-27T00:34:11.136Z,102658.53
2023-01-27T00:36:43.238Z,102620.41
2023-01-27T00:39:14.276Z,102652.94
2023-01-27T00:41:45.152Z,102662.78
2023-01-27T00:44:13.932Z,102667.97
2023-01-27T00:46:43.942Z,102629.50
2023-01-27T00:49:13.763Z,102672.97
2023-01-27T00:51:42.720Z,102681.22
2023-01-27T00:54:11.828Z,102679.75
2023-01-27T00:56:40.303Z,102676.84
2023-01-27T00:59:09.054Z,102649.66
2023-01-27T01:01:37.900Z,102678.94
2023-01-27T01:04:06.678Z,102667.34
2023-01-27T01:06:36.869Z,102651.19
2023-01-27T01:09:05.401Z,102510.81
2023-01-27T01:11:34.136Z,102671.47
2023-01-27T01:14:02.657Z,102672.09
2023-01-27T01:16:31.374Z,102655.44
2023-01-27T01:18:59.760Z,102646.63
2023-01-27T01:21:28.327Z,102683.06
2023-01-27T01:23:58.219Z,102688.38
2023-01-27T01:26:26.657Z,102690.69
2023-01-27T01:28:58.428Z,102674.88
2023-01-27T01:31:29.014Z,102649.53
2023-01-27T01:33:58.310Z,102689.94
2023-01-27T01:36:26.760Z,102691.56
2023-01-27T01:38:57.847Z,102656.84
2023-01-27T01:41:27.373Z,102633.63
2023-01-27T01:43:56.059Z,102697.44
2023-01-27T01:46:24.683Z,102696.38
2023-01-27T01:48:57.814Z,102693.16
2023-01-27T01:51:32.469Z,102695.66
2023-01-27T01:54:06.993Z,102701.19
2023-01-27T01:56:40.888Z,102678.84
2023-01-27T01:59:16.396Z,102690.19
2023-01-27T02:01:44.955Z,102698.53
2023-01-27T02:04:20.369Z,102690.16
2023-01-27T02:06:56.080Z,102671.56
2023-01-27T02:09:26.287Z,102646.00
2023-01-27T02:11:54.845Z,102652.69
2023-01-27T02:14:23.922Z,102667.22
2023-01-27T02:16:52.609Z,102679.38
2023-01-27T02:19:31.754Z,102686.56
2023-01-27T02:22:04.534Z,102697.59
2023-01-27T02:24:42.765Z,102702.06
2023-01-27T02:27:14.301Z,102668.59
2023-01-27T02:29:42.774Z,102713.06
2023-01-27T02:32:24.542Z,102689.94
2023-01-27T02:34:54.898Z,102675.97
2023-01-27T02:37:24.632Z,102689.44
2023-01-27T02:39:55.921Z,102717.16
2023-01-27T02:42:26.407Z,102727.94
2023-01-27T02:44:54.810Z,102708.91
2023-01-27T02:47:23.291Z,102693.22
2023-01-27T02:49:52.041Z,102689.34
2023-01-27T02:52:20.587Z,102725.97
2023-01-27T02:54:49.073Z,102712.19
2023-01-27T02:57:17.482Z,102684.66
2023-01-27T02:59:59.190Z,102723.66
2023-01-27T03:02:30.682Z,102677.94
2023-01-27T03:04:59.332Z,102728.97
2023-01-27T03:07:28.116Z,102707.19
2023-01-27T03:09:57.247Z,102728.09
2023-01-27T03:12:25.748Z,102740.84
2023-01-27T03:15:12.234Z,102710.00
2023-01-27T03:17:59.657Z,102715.19
2023-01-27T03:20:28.664Z,102718.19
2023-01-27T03:22:57.100Z,102738.06
2023-01-27T03:25:26.842Z,102741.44
2023-01-27T03:27:58.292Z,102745.63
2023-01-27T03:30:32.290Z,102743.72
2023-01-27T03:33:13.266Z,102742.66
2023-01-27T03:36:23.492Z,102753.41
2023-01-27T03:39:11.216Z,102761.81
2023-01-27T03:41:56.884Z,102715.88
2023-01-27T03:44:45.784Z,102756.19
2023-01-27T03:47:14.268Z,102759.31
2023-01-27T03:49:44.097Z,102759.72
2023-01-27T03:52:12.486Z,102724.25
2023-01-27T03:54:41.030Z,102757.41
2023-01-27T03:57:09.757Z,102734.88
2023-01-27T03:59:38.097Z,102715.78
2023-01-27T04:02:24.233Z,102721.16
2023-01-27T04:05:12.074Z,102758.91
2023-01-27T04:07:40.734Z,102768.81
2023-01-27T04:10:10.743Z,102766.31
2023-01-27T04:12:39.251Z,102760.69
2023-01-27T04:15:09.644Z,102769.78
2023-01-27T04:17:42.732Z,102757.75
2023-01-27T04:20:14.186Z,102760.63
2023-01-27T04:22:42.668Z,102777.44
2023-01-27T04:25:13.324Z,102747.06
2023-01-27T04:27:42.254Z,102783.41
2023-01-27T04:30:12.508Z,102736.06
2023-01-27T04:32:40.844Z,102741.78
2023-01-27T04:35:10.726Z,102795.91
2023-01-27T04:37:40.769Z,102795.13
2023-01-27T04:40:11.600Z,102691.03
2023-01-27T04:42:39.974Z,102792.88
2023-01-27T04:45:10.181Z,102758.25
2023-01-27T04:47:38.683Z,102736.47
2023-01-27T04:50:08.066Z,102790.38
2023-01-27T04:52:36.446Z,102767.31
2023-01-27T04:55:07.239Z,102780.44
2023-01-27T04:57:35.576Z,102742.41
2023-01-27T05:00:05.920Z,102809.22
2023-01-27T05:02:34.427Z,102803.69
2023-01-27T05:05:04.693Z,102810.38
2023-01-27T05:07:33.541Z,102755.81
2023-01-27T05:10:02.159Z,102808.38
2023-01-27T05:12:31.910Z,102765.13
2023-01-27T05:15:00.341Z,102823.88
2023-01-27T05:17:32.885Z,102817.09
2023-01-27T05:20:01.332Z,102811.38
2023-01-27T05:22:29.632Z,102817.69
2023-01-27T05:24:57.985Z,102781.91
2023-01-27T05:27:26.601Z,102822.03
2023-01-27T05:29:57.119Z,102822.22
2023-01-27T05:32:25.677Z,102798.44
2023-01-27T05:34:54.131Z,102812.56
2023-01-27T05:37:22.459Z,102810.19
2023-01-27T05:39:50.919Z,102818.84
2023-01-27T05:42:19.285Z,102822.06
2023-01-27T05:44:49.143Z,102806.88
2023-01-27T05:47:20.081Z,102813.75
2023-01-27T05:49:48.499Z,102824.28
2023-01-27T05:52:16.930Z,102819.06
2023-01-27T05:54:45.568Z,102818.66
2023-01-27T05:57:13.989Z,102778.81
2023-01-27T05:59:42.405Z,102828.66
2023-01-27T06:02:11.548Z,102821.69
2023-01-27T06:04:41.387Z,102825.56
2023-01-27T06:07:09.965Z,102830.25
2023-01-27T06:09:38.839Z,102803.88
2023-01-27T06:12:07.871Z,102791.69
2023-01-27T06:14:36.237Z,102833.25
2023-01-27T06:17:05.113Z,102835.53
2023-01-27T06:19:33.927Z,102757.53
2023-01-27T06:22:04.070Z,102837.03
2023-01-27T06:24:33.825Z,102834.50
2023-01-27T06:27:02.529Z,102849.66
2023-01-27T06:29:32.071Z,102810.13
2023-01-27T06:32:00.580Z,102856.03
2023-01-27T06:34:29.588Z,102854.94
2023-01-27T06:36:57.933Z,102815.47
2023-01-27T06:39:27.767Z,102847.25
2023-01-27T06:41:56.286Z,102852.84
2023-01-27T06:44:24.825Z,102821.78
2023-01-27T06:46:53.589Z,102860.75
2023-01-27T06:49:21.997Z,102860.56
2023-01-27T06:51:50.412Z,102822.88
2023-01-27T06:54:19.011Z,102859.75
2023-01-27T06:56:48.850Z,102856.84
2023-01-27T06:59:17.389Z,102819.28
2023-01-27T07:01:45.777Z,102803.69
2023-01-27T07:04:14.302Z,102852.44
2023-01-27T07:06:42.821Z,102854.63
2023-01-27T07:09:11.303Z,102842.56
2023-01-27T07:11:39.670Z,102855.47
2023-01-27T07:14:10.605Z,102861.44
2023-01-27T07:16:39.159Z,102863.53
2023-01-27T07:19:07.517Z,102840.06
2023-01-27T07:21:36.296Z,102863.44
2023-01-27T07:24:05.180Z,102851.44
2023-01-27T07:26:33.719Z,102869.94
2023-01-27T07:29:02.198Z,102875.34
2023-01-27T07:31:32.067Z,102881.63
2023-01-27T07:34:00.448Z,102877.16
2023-01-27T07:36:28.887Z,102804.78
2023-01-27T07:38:57.220Z,102872.22
2023-01-27T07:41:26.318Z,102856.03
2023-01-27T07:43:54.843Z,102869.72
2023-01-27T07:46:24.636Z,102877.13
2023-01-27T07:48:55.413Z,102879.94
2023-01-27T07:51:23.962Z,102885.22
2023-01-27T07:53:52.989Z,102850.94
2023-01-27T07:56:21.459Z,102886.41
2023-01-27T07:58:49.945Z,102894.78
2023-01-27T08:01:18.403Z,102881.53
2023-01-27T08:03:47.119Z,102875.81
2023-01-27T08:06:17.213Z,102885.91
2023-01-27T08:08:45.782Z,102881.81
2023-01-27T08:11:16.253Z,102872.25
2023-01-27T08:13:44.778Z,102880.44
2023-01-27T08:16:16.009Z,102871.81
2023-01-27T08:18:44.774Z,102869.44
2023-01-27T08:21:14.178Z,102831.84
2023-01-27T08:23:47.452Z,102850.03
2023-01-27T08:26:15.949Z,102895.63
2023-01-27T08:28:44.688Z,102883.81
2023-01-27T08:31:15.847Z,102890.44
2023-01-27T08:33:46.008Z,102896.63
2023-01-27T08:36:17.224Z,102906.72
2023-01-27T08:38:49.305Z,102900.41
2023-01-27T08:41:20.953Z,102870.94
2023-01-27T08:43:49.535Z,102888.91
2023-01-27T08:46:18.364Z,102911.03
2023-01-27T08:48:46.798Z,102875.03
2023-01-27T08:51:15.892Z,102913.03
2023-01-27T08:53:44.299Z,102873.75
2023-01-27T08:56:16.144Z,102880.13
2023-01-27T08:58:47.367Z,102850.00
2023-01-27T09:01:17.312Z,102913.31
2023-01-27T09:03:45.744Z,102894.13
2023-01-27T09:06:15.332Z,102895.22
2023-01-27T09:08:44.782Z,102905.84
2023-01-27T09:11:17.830Z,102912.72
2023-01-27T09:13:46.329Z,102892.34
2023-01-27T09:16:14.746Z,102930.63
2023-01-27T09:18:43.092Z,102879.75
2023-01-27T09:21:12.167Z,102910.59
2023-01-27T09:23:40.620Z,102909.50
2023-01-27T09:26:09.197Z,102897.03
2023-01-27T09:28:38.948Z,102929.97
2023-01-27T09:31:09.575Z,102903.88
2023-01-27T09:33:38.988Z,102906.91
2023-01-27T09:36:12.166Z,102892.22
2023-01-27T09:38:48.162Z,102942.69
2023-01-27T09:41:44.134Z,102914.00
2023-01-27T09:44:57.023Z,102947.38
2023-01-27T09:47:53.216Z,102942.59
2023-01-27T09:50:39.007Z,102947.94
2023-01-27T09:53:46.139Z,102933.28
2023-01-27T09:56:21.736Z,102908.25
2023-01-27T09:59:19.791Z,102927.44
2023-01-27T10:02:02.778Z,102943.97
2023-01-27T10:04:52.750Z,102944.84
2023-01-27T10:07:59.363Z,102949.94
2023-01-27T10:10:50.243Z,102913.41
2023-01-27T10:13:34.866Z,102925.25
2023-01-27T10:16:31.594Z,102921.53
2023-01-27T10:19:29.065Z,102947.59
2023-01-27T10:22:12.204Z,102952.00
2023-01-27T10:24:58.385Z,102943.06
2023-01-27T10:27:29.192Z,102951.00
2023-01-27T10:30:03.115Z,102927.44
2023-01-27T10:32:41.864Z,102908.25
2023-01-27T10:35:20.884Z,102913.84
2023-01-27T10:38:02.628Z,102928.81
2023-01-27T10:40:41.507Z,102936.94
2023-01-27T10:43:17.734Z,102945.34
2023-01-27T10:45:56.618Z,102917.44
2023-01-27T10:48:37.592Z,102893.56
2023-01-27T10:51:13.151Z,102904.13
2023-01-27T10:53:56.792Z,102913.03
2023-01-27T10:56:37.408Z,102956.72
2023-01-27T10:59:16.331Z,102953.50
2023-01-27T11:01:51.930Z,102942.63
2023-01-27T11:04:31.299Z,102924.66
2023-01-27T11:07:01.676Z,102923.69
2023-01-27T11:09:32.769Z,102926.34
2023-01-27T11:12:07.161Z,102951.56
2023-01-27T11:14:46.719Z,102938.44
2023-01-27T11:17:21.418Z,102957.81
2023-01-27T11:20:01.388Z,102953.50
2023-01-27T11:22:39.655Z,102924.69
2023-01-27T11:25:18.858Z,102937.38
2023-01-27T11:28:12.411Z,102949.41
2023-01-27T11:30:52.641Z,102939.38
2023-01-27T11:33:29.360Z,102914.94
2023-01-27T11:35:57.826Z,102937.19
2023-01-27T11:38:27.650Z,102889.59
2023-01-27T11:40:56.275Z,102926.66
2023-01-27T11:43:27.935Z,102916.03
2023-01-27T11:46:03.576Z,102926.38
2023-01-27T11:48:41.325Z,102921.31
2023-01-27T11:51:20.781Z,102926.44
2023-01-27T11:54:01.889Z,102933.09
2023-01-27T11:56:31.077Z,102909.59
2023-01-27T11:59:06.629Z,102883.53
2023-01-27T12:01:48.377Z,102903.66
2023-01-27T12:04:25.119Z,102877.97
2023-01-27T12:07:00.372Z,102902.03
2023-01-27T12:09:37.035Z,102914.84
2023-01-27T12:12:21.089Z,102896.38
2023-01-27T12:14:53.635Z,102905.53
2023-01-27T12:17:31.919Z,102914.53
2023-01-27T12:20:06.482Z,102909.41
2023-01-27T12:22:40.047Z,102901.06
2023-01-27T12:25:21.212Z,102911.31
2023-01-27T12:27:54.687Z,102888.72
2023-01-27T12:30:25.724Z,102910.34
2023-01-27T12:32:55.219Z,102902.91
2023-01-27T12:35:28.273Z,102870.50
2023-01-27T12:38:01.364Z,102881.06
2023-01-27T12:40:34.173Z,102890.63
2023-01-27T12:43:13.022Z,102870.59
2023-01-27T12:45:43.455Z,102873.19
2023-01-27T12:48:22.029Z,102858.75
2023-01-27T12:51:04.756Z,102894.66
2023-01-27T12:53:33.329Z,102871.31
2023-01-27T12:56:12.097Z,102890.63
2023-01-27T12:58:42.932Z,102880.81
2023-01-27T13:01:35.254Z,102860.25
2023-01-27T13:04:09.924Z,102889.81
2023-01-27T13:06:44.317Z,102858.53
2023-01-27T13:09:28.702Z,102888.44
2023-01-27T13:12:03.027Z,102884.78
2023-01-27T13:14:40.685Z,102891.53
2023-01-27T13:17:37.171Z,102870.69
2023-01-27T13:20:16.871Z,102887.59
2023-01-27T13:22:49.652Z,102893.25
2023-01-27T13:25:22.957Z,102895.72
2023-01-27T13:27:58.856Z,102848.25
2023-01-27T13:30:34.324Z,102868.13
2023-01-27T13:33:26.255Z,102878.88
2023-01-27T13:36:03.421Z,102859.44
2023-01-27T13:38:44.393Z,102891.41
2023-01-27T13:41:23.239Z,102888.47
2023-01-27T13:44:04.227Z,102854.78
2023-01-27T13:46:38.552Z,102883.69
2023-01-27T13:49:22.458Z,102860.78
2023-01-27T13:51:50.897Z,102859.03
2023-01-27T13:54:19.389Z,102864.72
2023-01-27T13:57:06.830Z,102869.31
2023-01-27T13:59:44.683Z,102871.66
2023-01-27T14:02:41.271Z,102871.03
2023-01-27T14:05:37.871Z,102874.09
2023-01-27T14:08:23.278Z,102905.00
2023-01-27T14:11:14.441Z,102901.16
2023-01-27T14:14:28.333Z,102899.53
2023-01-27T14:17:26.509Z,102896.75
2023-01-27T14:20:19.021Z,102901.22
2023-01-27T14:23:02.577Z,102899.09
2023-01-27T14:25:42.791Z,102871.03
2023-01-27T14:28:26.421Z,102888.13
2023-01-27T14:31:02.846Z,102884.31
2023-01-27T14:33:55.019Z,102886.91
2023-01-27T14:36:29.233Z,102870.75
2023-01-27T14:39:07.036Z,102874.72
2023-01-27T14:41:46.857Z,102904.97
2023-01-27T14:44:33.769Z,102888.94
2023-01-27T14:47:24.149Z,102902.84
2023-01-27T14:50:13.801Z,102915.41
2023-01-27T14:52:50.187Z,102899.53
2023-01-27T14:55:34.663Z,102887.28
2023-01-27T14:58:35.714Z,102896.22
2023-01-27T15:01:15.658Z,102924.47
2023-01-27T15:04:21.288Z,102869.97
2023-01-27T15:06:57.597Z,102890.47
2023-01-27T15:09:45.256Z,102931.38
2023-01-27T15:12:36.302Z,102932.06
2023-01-27T15:16:00.734Z,102931.59
2023-01-27T15:19:19.462Z,102938.78
2023-01-27T15:22:31.188Z,102938.94
2023-01-27T15:25:20.236Z,102937.31
2023-01-27T15:27:49.901Z,102937.94
2023-01-27T15:30:26.936Z,102905.78
2023-01-27T15:32:56.136Z,102894.38
2023-01-27T15:35:38.775Z,102930.78
2023-01-27T15:38:34.086Z,102951.41
2023-01-27T15:41:20.692Z,102951.00
2023-01-27T15:44:15.307Z,102914.00
2023-01-27T15:46:47.198Z,102953.66
2023-01-27T15:49:23.873Z,102949.03
2023-01-27T15:51:55.621Z,102955.28
2023-01-27T15:54:31.580Z,102955.38
2023-01-27T15:57:05.178Z,102947.97
2023-01-27T15:59:58.351Z,102949.09
2023-01-27T16:02:30.997Z,102941.91
2023-01-27T16:05:17.220Z,102951.22
2023-01-27T16:07:51.841Z,102959.00
2023-01-27T16:10:25.879Z,102919.53
2023-01-27T16:13:23.352Z,102919.94
2023-01-27T16:16:22.735Z,102958.81
2023-01-27T16:18:57.435Z,102931.59
2023-01-27T16:21:50.504Z,102928.41
2023-01-27T16:24:29.532Z,102909.44
2023-01-27T16:27:07.992Z,102924.63
2023-01-27T16:29:45.543Z,102946.84
2023-01-27T16:32:19.826Z,102951.72
2023-01-27T16:34:51.926Z,102965.41
2023-01-27T16:37:25.712Z,102972.94
2023-01-27T16:40:01.673Z,102974.63
2023-01-27T16:42:35.995Z,102969.50
2023-01-27T16:45:18.684Z,102967.38
2023-01-27T16:47:52.452Z,102979.97
2023-01-27T16:50:36.116Z,102974.59
2023-01-27T16:53:06.671Z,102982.72
2023-01-27T16:55:35.350Z,102996.50
2023-01-27T16:58:05.148Z,102991.59
2023-01-27T17:00:36.703Z,103007.63
2023-01-27T17:03:14.590Z,102983.50
2023-01-27T17:05:46.801Z,103008.31
2023-01-27T17:08:25.085Z,103012.91
2023-01-27T17:10:57.653Z,102982.44
2023-01-27T17:13:43.575Z,102981.91
2023-01-27T17:16:21.078Z,103023.84
2023-01-27T17:18:52.856Z,103022.28
2023-01-27T17:21:35.916Z,103024.38
2023-01-27T17:24:17.126Z,103035.59
2023-01-27T17:26:50.333Z,103027.34
2023-01-27T17:29:24.021Z,103005.72
2023-01-27T17:31:52.772Z,103036.19
2023-01-27T17:34:22.918Z,103039.09
2023-01-27T17:37:16.176Z,103035.38
2023-01-27T17:39:46.192Z,103001.25
2023-01-27T17:42:19.553Z,103045.53
2023-01-27T17:44:50.622Z,102999.63
2023-01-27T17:47:21.522Z,103032.19
2023-01-27T17:49:51.763Z,103002.97
2023-01-27T17:52:23.963Z,103039.69
2023-01-27T17:54:53.127Z,102992.78
2023-01-27T17:57:24.114Z,103031.38
2023-01-27T18:00:04.153Z,103041.81
2023-01-27T18:02:55.127Z,103036.22
2023-01-27T18:05:27.356Z,103045.72
2023-01-27T18:07:56.316Z,103053.78
2023-01-27T18:10:28.137Z,102987.16
2023-01-27T18:12:56.860Z,103036.06
2023-01-27T18:15:42.640Z,103058.59
2023-01-27T18:18:24.619Z,103057.88
2023-01-27T18:21:15.676Z,103042.63
2023-01-27T18:23:46.705Z,103033.38
2023-01-27T18:26:26.009Z,103028.09
2023-01-27T18:29:00.566Z,103050.84
2023-01-27T18:31:35.236Z,103065.03
2023-01-27T18:34:23.789Z,103062.34
2023-01-27T18:36:55.720Z,103024.38
2023-01-27T18:39:40.828Z,103047.97
2023-01-27T18:42:16.082Z,103073.75
2023-01-27T18:44:45.186Z,103072.44
2023-01-27T18:47:29.262Z,103061.16
2023-01-27T18:50:14.455Z,103073.38
2023-01-27T18:52:43.251Z,103031.50
2023-01-27T18:55:17.848Z,103080.78
2023-01-27T18:57:47.764Z,103048.88
2023-01-27T19:00:20.564Z,103079.09
2023-01-27T19:02:53.849Z,103066.56
2023-01-27T19:05:25.218Z,103069.06
2023-01-27T19:07:53.872Z,102929.34
2023-01-27T19:10:25.104Z,103103.28
2023-01-27T19:12:53.783Z,103021.44
2023-01-27T19:15:24.740Z,103034.66
2023-01-27T19:17:56.565Z,102994.28
2023-01-27T19:20:28.364Z,103065.91
2023-01-27T19:22:58.715Z,103017.22
2023-01-27T19:25:30.660Z,102981.00
2023-01-27T19:28:05.542Z,102891.91
2023-01-27T19:30:37.248Z,102951.00
2023-01-27T19:33:18.896Z,103087.13
2023-01-27T19:35:50.461Z,103010.72
2023-01-27T19:38:19.203Z,103019.31
2023-01-27T19:40:47.740Z,103080.59
2023-01-27T19:43:17.397Z,103064.75
2023-01-27T19:45:49.365Z,102936.19
2023-01-27T19:48:21.212Z,102983.78
2023-01-27T19:50:51.362Z,102853.81
2023-01-27T19:53:21.100Z,103090.31
2023-01-27T19:55:50.375Z,103034.19
2023-01-27T19:58:24.941Z,102978.41
2023-01-27T20:00:54.825Z,103102.16
2023-01-27T20:03:25.223Z,103123.16
2023-01-27T20:05:54.537Z,102822.31
2023-01-27T20:08:23.932Z,103066.09
2023-01-27T20:10:52.720Z,103004.69
2023-01-27T20:13:22.618Z,103093.47
2023-01-27T20:15:52.387Z,102894.03
2023-01-27T20:18:23.632Z,103116.56
2023-01-27T20:20:53.766Z,103036.25
2023-01-27T20:23:22.257Z,103120.81
2023-01-27T20:25:50.763Z,103113.50
2023-01-27T20:28:19.200Z,103116.28
2023-01-27T20:30:47.663Z,103102.28
2023-01-27T20:33:16.256Z,103089.22
2023-01-27T20:35:44.687Z,103092.34
2023-01-27T20:38:14.414Z,103125.22
2023-01-27T20:40:43.328Z,103065.91
2023-01-27T20:43:11.707Z,103108.56
2023-01-27T20:45:41.021Z,103121.13
2023-01-27T20:48:12.454Z,103074.94
2023-01-27T20:50:40.890Z,103076.97
2023-01-27T20:53:09.257Z,103107.81
2023-01-27T20:55:39.149Z,103078.53
2023-01-27T20:58:07.550Z,103120.28
2023-01-27T21:00:36.041Z,103037.34
2023-01-27T21:03:05.115Z,103125.09
2023-01-27T21:05:34.616Z,103117.56
2023-01-27T21:08:03.028Z,102932.00
2023-01-27T21:10:31.407Z,103128.28
2023-01-27T21:13:01.338Z,103068.44
2023-01-27T21:15:29.745Z,103126.59
2023-01-27T21:18:00.069Z,103126.81
2023-01-27T21:20:28.475Z,103009.16
2023-01-27T21:22:57.179Z,103083.44
2023-01-27T21:25:25.820Z,103109.63
2023-01-27T21:27:54.410Z,103099.81
2023-01-27T21:30:25.658Z,103094.63
2023-01-27T21:32:54.086Z,103104.16
2023-01-27T21:35:22.671Z,103083.97
2023-01-27T21:37:51.295Z,103105.69
2023-01-27T21:40:19.978Z,103115.81
2023-01-27T21:43:05.814Z,102969.84
2023-01-27T21:45:35.657Z,103104.19
2023-01-27T21:48:04.339Z,103110.06
2023-01-27T21:50:33.238Z,103107.91
2023-01-27T21:53:01.930Z,103109.47
2023-01-27T21:55:31.652Z,102967.22
2023-01-27T21:58:00.217Z,103042.94
2023-01-27T22:00:30.038Z,103109.00
2023-01-27T22:03:02.863Z,103098.66
2023-01-27T22:05:33.212Z,103053.13
2023-01-27T22:08:02.291Z,102899.69
2023-01-27T22:10:32.048Z,102985.81
2023-01-27T22:13:03.757Z,103068.59
2023-01-27T22:15:32.934Z,103047.19
2023-01-27T22:18:02.685Z,103095.34
2023-01-27T22:20:31.165Z,103096.13
2023-01-27T22:22:59.598Z,103094.16
2023-01-27T22:25:28.235Z,102994.09
2023-01-27T22:27:57.464Z,103085.56
2023-01-27T22:30:25.884Z,103087.78
2023-01-27T22:32:54.420Z,102869.59
2023-01-27T22:35:24.286Z,103054.97
2023-01-27T22:37:53.164Z,103089.63
2023-01-27T22:40:21.911Z,103043.28
2023-01-27T22:42:50.788Z,103023.81
2023-01-27T22:45:19.594Z,103076.50
2023-01-27T22:47:49.576Z,103076.91
2023-01-27T22:50:18.637Z,103027.63
2023-01-27T22:52:48.422Z,103080.28
2023-01-27T22:55:17.118Z,103082.91
2023-01-27T22:57:47.860Z,102912.09
2023-01-27T23:00:17.560Z,103078.63
2023-01-27T23:02:46.058Z,103014.44
2023-01-27T23:05:15.154Z,103059.00
2023-01-27T23:07:43.729Z,103080.50
2023-01-27T23:10:13.821Z,103007.78
2023-01-27T23:12:42.183Z,103027.22
2023-01-27T23:15:11.703Z,102791.63
2023-01-27T23:17:40.303Z,103064.88
2023-01-27T23:20:11.409Z,103031.34
2023-01-27T23:22:40.113Z,103071.22
2023-01-27T23:25:10.450Z,103070.16
2023-01-27T23:27:40.355Z,103058.97
2023-01-27T23:30:12.045Z,103081.59
2023-01-27T23:32:40.902Z,103050.44
2023-01-27T23:35:10.614Z,103053.16
2023-01-27T23:37:38.980Z,103080.50
2023-01-27T23:40:09.605Z,103036.41
2023-01-27T23:42:40.127Z,103084.97
2023-01-27T23:45:09.512Z,103024.34
2023-01-27T23:47:38.025Z,102945.13
2023-01-27T23:50:07.191Z,103047.25
2023-01-27T23:52:36.157Z,103085.81
2023-01-27T23:55:04.969Z,103080.94
2023-01-27T23:57:33.419Z,103090.56
